Time;durP1;ratioP1;P1;durP2;ratioP2;P2;SDS_P1;SDS_P2;PMS_P1;PMS_P2;Temp;Humidity;BMP_temperature;BMP_pressure;BME280_temperature;BME280_humidity;BME280_pressure;Samples;Min_cycle;Max_cycle;Signal;HPM_P1;HPM_P2
2022/07/04 00:08:12;;;;;;;4.90;4.40;;;;;;;16.73;69.39;99605.02;444764;1276;142959;-59
2022/07/04 00:18:18;;;;;;;5.30;4.80;;;;;;;16.60;69.90;99603.18;445567;1277;142887;-60
2022/07/04 00:28:24;;;;;;;5.40;5.00;;;;;;;16.48;70.45;99597.16;445612;1277;142851;-60
2022/07/04 00:38:30;;;;;;;4.30;3.90;;;;;;;16.37;70.83;99595.48;444142;1279;142666;-60
2022/07/04 00:48:36;;;;;;;4.30;3.90;;;;;;;16.27;71.16;99585.23;445652;1277;142467;-60
2022/07/04 00:58:41;;;;;;;5.30;4.80;;;;;;;16.17;71.39;99585.20;445694;1277;141474;-60
2022/07/04 01:08:48;;;;;;;5.20;4.80;;;;;;;16.10;71.66;99585.79;444928;1277;142611;-60
2022/07/04 01:18:54;;;;;;;7.70;4.80;;;;;;;16.02;71.86;99576.98;445528;1277;143101;-60
2022/07/04 01:29:00;;;;;;;5.00;4.70;;;;;;;15.88;71.81;99576.05;445606;1277;142861;-60
2022/07/04 01:39:06;;;;;;;4.90;4.40;;;;;;;15.81;72.25;99575.54;445595;1277;142218;-60
2022/07/04 01:49:12;;;;;;;6.40;3.90;;;;;;;15.71;72.21;99573.01;445464;1277;142422;-60
2022/07/04 01:59:17;;;;;;;5.80;4.60;;;;;;;15.60;72.17;99569.00;428635;1277;142635;-61
2022/07/04 02:09:23;;;;;;;6.80;5.00;;;;;;;15.51;72.47;99566.48;435821;1277;142772;-60
2022/07/04 02:19:29;;;;;;;4.90;4.50;;;;;;;15.41;72.59;99565.67;445493;1277;142869;-61
2022/07/04 02:29:35;;;;;;;5.40;4.90;;;;;;;15.34;72.69;99565.60;444753;1277;143810;-60
2022/07/04 02:39:41;;;;;;;5.20;4.60;;;;;;;15.42;73.46;99567.56;445513;1277;142341;-60
2022/07/04 02:49:47;;;;;;;5.60;5.00;;;;;;;15.49;73.25;99570.71;445305;1277;142642;-60
2022/07/04 02:59:53;;;;;;;5.10;4.60;;;;;;;15.76;73.61;99567.14;444768;1277;142528;-60
2022/07/04 03:09:58;;;;;;;6.90;4.50;;;;;;;17.16;72.99;99560.63;445547;1277;142252;-60
2022/07/04 03:20:04;;;;;;;5.00;4.10;;;;;;;20.42;69.34;99558.23;444749;1278;162407;-59
2022/07/04 03:30:12;;;;;;;6.80;4.20;;;;;;;21.88;64.01;99554.70;445563;1277;142469;-60
2022/07/04 03:40:17;;;;;;;4.90;3.80;;;;;;;22.15;61.67;99558.98;445497;1277;141650;-60
2022/07/04 03:50:24;;;;;;;5.00;4.50;;;;;;;21.35;61.09;99567.73;437064;1277;145573;-59
2022/07/04 04:00:29;;;;;;;6.20;4.30;;;;;;;20.84;62.07;99577.77;441070;1277;142666;-60
2022/07/04 04:10:35;;;;;;;4.30;3.90;;;;;;;26.43;58.24;99582.95;445393;1277;142162;-60
2022/07/04 04:20:41;;;;;;;3.50;3.20;;;;;;;32.31;48.93;99582.33;444737;1277;142711;-59
2022/07/04 04:30:47;;;;;;;3.30;3.00;;;;;;;36.06;41.56;99579.66;445582;1276;143744;-60
2022/07/04 04:40:52;;;;;;;3.20;2.80;;;;;;;38.92;36.22;99571.52;445492;1277;141333;-60
2022/07/04 04:50:58;;;;;;;2.80;2.10;;;;;;;41.32;32.18;99570.48;444461;1277;141976;-60
2022/07/04 05:01:04;;;;;;;3.70;3.40;;;;;;;43.88;28.36;99560.83;445531;1277;152198;-60
2022/07/04 05:11:30;;;;;;;2.20;1.90;;;;;;;45.58;25.69;99541.35;444712;1275;186151;-60
2022/07/04 05:21:36;;;;;;;5.50;2.30;;;;;;;46.55;23.14;99551.60;445628;1277;143062;-60
2022/07/04 05:31:42;;;;;;;2.50;2.20;;;;;;;48.53;21.76;99549.77;445513;1277;141875;-60
2022/07/04 05:41:47;;;;;;;4.10;2.10;;;;;;;50.60;19.50;99554.89;444675;1278;142256;-60
2022/07/04 05:51:53;;;;;;;2.50;2.30;;;;;;;52.34;18.09;99544.42;445631;1277;142618;-60
2022/07/04 06:01:59;;;;;;;3.00;2.80;;;;;;;54.04;16.48;99545.69;445642;1277;142283;-60
2022/07/04 06:12:06;;;;;;;3.30;3.10;;;;;;;55.23;15.10;99535.92;445643;1277;143838;-60
2022/07/04 06:22:12;;;;;;;6.40;5.60;;;;;;;56.76;14.46;99532.71;445607;1277;141815;-61
2022/07/04 06:32:18;;;;;;;7.00;6.70;;;;;;;57.13;13.35;99519.36;444868;1278;141339;-61
2022/07/04 06:42:24;;;;;;;9.70;9.10;;;;;;;57.94;12.86;99527.07;445550;1278;142253;-61
2022/07/04 06:52:29;;;;;;;12.20;11.60;;;;;;;58.80;12.16;99528.70;445573;1278;199997;-61
2022/07/04 07:02:37;;;;;;;16.00;15.40;;;;;;;59.59;11.88;99534.13;444885;1277;142618;-60
2022/07/04 07:12:43;;;;;;;23.30;21.40;;;;;;;59.90;11.16;99527.45;445543;1278;142450;-60
2022/07/04 07:22:49;;;;;;;31.50;30.30;;;;;;;61.18;10.20;99530.74;445587;1277;141790;-61
2022/07/04 07:32:55;;;;;;;39.70;38.40;;;;;;;61.55;9.89;99519.51;444799;1277;142168;-61
2022/07/04 07:43:01;;;;;;;44.80;43.40;;;;;;;61.74;9.47;99506.45;445604;1278;142424;-60
2022/07/04 07:53:07;;;;;;;13.10;12.60;;;;;;;61.77;9.38;99510.98;444617;1279;141428;-60
2022/07/04 08:13:36;;;;;;;3.30;2.40;;;;;;;48.23;14.01;99503.41;445553;1278;141979;-60
2022/07/04 08:23:43;;;;;;;3.10;2.90;;;;;;;44.26;16.07;99493.88;444822;1277;142520;-61
2022/07/04 08:34:08;;;;;;;5.30;2.20;;;;;;;41.52;18.21;99508.27;439808;1278;141330;-59
2022/07/04 08:44:14;;;;;;;3.40;2.30;;;;;;;40.26;19.08;99516.38;433522;1278;142414;-60
2022/07/04 09:04:46;;;;;;;2.80;2.60;;;;;;;38.35;20.02;99503.19;445566;1277;143108;-59
2022/07/04 09:14:52;;;;;;;3.50;2.20;;;;;;;37.85;21.34;99513.35;444742;1278;141948;-60
2022/07/04 09:24:58;;;;;;;5.80;2.80;;;;;;;36.30;22.24;99510.23;445500;1278;141493;-61
2022/07/04 09:35:09;;;;;;;2.50;2.10;;;;;;;35.78;22.71;99508.29;444756;1277;142186;-60
2022/07/04 09:45:15;;;;;;;2.70;2.50;;;;;;;35.29;22.86;99508.05;445476;1277;142423;-60
2022/07/04 09:55:26;;;;;;;3.10;2.40;;;;;;;34.28;23.60;99514.36;445362;1277;274849;-61
2022/07/04 10:05:31;;;;;;;4.30;2.50;;;;;;;33.97;24.26;99510.56;444744;1278;141568;-60
2022/07/04 10:15:40;;;;;;;1.80;1.70;;;;;;;34.09;24.42;99504.17;445735;1277;143183;-59
2022/07/04 10:25:48;;;;;;;3.40;2.90;;;;;;;33.87;24.10;99497.91;445605;1277;141937;-61
2022/07/04 10:35:56;;;;;;;2.70;2.50;;;;;;;33.57;24.40;99500.08;444930;1277;141054;-60
2022/07/04 10:46:25;;;;;;;2.90;2.40;;;;;;;33.27;24.30;99494.71;445722;1277;142554;-60
2022/07/04 10:56:48;;;;;;;2.20;2.10;;;;;;;33.55;24.60;99486.78;444956;1277;142952;-60
2022/07/04 11:06:55;;;;;;;2.90;2.60;;;;;;;33.47;24.59;99469.85;445456;1277;141689;-60
2022/07/04 11:17:01;;;;;;;2.40;2.10;;;;;;;33.56;24.72;99458.16;445439;1277;141783;-60
2022/07/04 11:27:09;;;;;;;2.60;2.30;;;;;;;33.69;24.24;99454.98;445405;1277;141621;-60
2022/07/04 11:37:15;;;;;;;3.40;1.70;;;;;;;33.99;23.37;99459.11;445427;1277;145957;-60
2022/07/04 11:47:23;;;;;;;2.70;2.30;;;;;;;34.21;23.63;99470.38;444652;1277;141582;-60
2022/07/04 11:57:30;;;;;;;5.30;2.30;;;;;;;33.40;24.20;99471.11;445544;1277;143154;-62
2022/07/04 12:07:37;;;;;;;7.80;2.70;;;;;;;33.22;24.87;99460.88;445598;1277;141175;-60
2022/07/04 12:17:43;;;;;;;6.60;2.20;;;;;;;33.45;24.82;99454.77;444882;1277;142161;-60
2022/07/04 12:27:56;;;;;;;2.60;2.40;;;;;;;33.37;25.03;99444.63;445604;1275;142703;-59
2022/07/04 12:38:07;;;;;;;2.30;1.70;;;;;;;33.33;25.19;99436.91;445623;1277;141606;-60
2022/07/04 12:48:22;;;;;;;2.30;2.10;;;;;;;33.04;25.45;99424.52;445630;1277;143002;-60
2022/07/04 12:58:28;;;;;;;2.10;2.00;;;;;;;33.14;25.64;99422.04;445601;1277;141419;-60
2022/07/04 13:08:34;;;;;;;4.40;2.20;;;;;;;31.89;26.70;99418.12;444830;1277;141801;-60
2022/07/04 13:18:40;;;;;;;5.40;2.30;;;;;;;31.76;27.17;99423.92;445579;1275;141833;-60
2022/07/04 13:28:45;;;;;;;5.00;2.50;;;;;;;31.98;26.91;99414.89;445593;1277;141317;-59
2022/07/04 13:38:51;;;;;;;3.00;2.10;;;;;;;31.91;27.53;99419.70;434993;1277;141412;-59
2022/07/04 13:49:09;;;;;;;2.80;2.40;;;;;;;31.91;27.44;99417.52;442221;1277;141695;-60
2022/07/04 13:59:18;;;;;;;4.90;2.30;;;;;;;31.94;27.83;99404.43;444678;1277;141514;-59
2022/07/04 14:09:24;;;;;;;2.30;2.10;;;;;;;32.15;27.86;99403.95;445264;1277;141403;-60
2022/07/04 14:19:30;;;;;;;7.80;2.80;;;;;;;32.42;27.92;99394.60;445423;1277;140995;-60
2022/07/04 14:29:36;;;;;;;3.50;3.20;;;;;;;32.22;27.97;99389.10;444492;1277;143511;-60
2022/07/04 14:39:48;;;;;;;3.20;2.60;;;;;;;31.62;28.61;99371.60;445161;1277;141769;-60
2022/07/04 14:49:53;;;;;;;3.70;2.80;;;;;;;30.97;29.41;99377.36;445244;1277;142467;-60
2022/07/04 14:59:59;;;;;;;5.80;2.70;;;;;;;30.60;30.32;99366.45;444575;1277;144246;-60
2022/07/04 15:10:07;;;;;;;5.90;2.90;;;;;;;30.86;30.34;99367.16;445414;1277;141985;-60
2022/07/04 15:30:37;;;;;;;4.80;3.60;;;;;;;28.19;35.63;99406.98;445002;1277;142190;-60
2022/07/04 15:40:44;;;;;;;4.60;3.50;;;;;;;27.59;37.82;99402.98;445336;1277;140889;-60
2022/07/04 15:50:50;;;;;;;3.90;2.80;;;;;;;27.22;38.48;99400.09;444585;1277;141782;-60
2022/07/04 16:00:56;;;;;;;3.70;3.00;;;;;;;27.08;38.72;99399.36;445400;1277;141508;-61
2022/07/04 16:11:02;;;;;;;5.90;2.90;;;;;;;27.27;38.98;99392.08;445360;1278;142738;-60
2022/07/04 16:21:08;;;;;;;3.60;3.40;;;;;;;27.71;38.82;99400.15;445410;1277;143231;-59
2022/07/04 16:31:14;;;;;;;6.00;3.10;;;;;;;27.94;38.71;99399.05;445352;1277;143521;-60
2022/07/04 16:41:20;;;;;;;11.20;4.20;;;;;;;27.72;38.83;99394.12;444684;1277;142002;-60
2022/07/04 16:51:27;;;;;;;5.10;4.00;;;;;;;27.29;39.61;99397.86;445316;1277;142019;-61
2022/07/04 17:01:32;;;;;;;3.30;3.00;;;;;;;27.07;40.27;99407.40;445385;1277;142956;-60
2022/07/04 17:11:38;;;;;;;4.30;3.50;;;;;;;26.75;40.54;99418.78;444602;1276;141397;-59
2022/07/04 17:21:44;;;;;;;4.00;3.70;;;;;;;26.28;41.49;99414.44;445519;1277;141670;-59
2022/07/04 17:31:50;;;;;;;4.30;4.00;;;;;;;26.19;41.98;99422.13;445488;1277;140567;-60
2022/07/04 17:41:56;;;;;;;7.50;4.10;;;;;;;25.95;42.46;99419.55;444919;1276;141955;-59
2022/07/04 17:52:02;;;;;;;6.40;3.50;;;;;;;25.67;42.94;99421.70;445607;1277;142451;-61
2022/07/04 18:02:09;;;;;;;17.40;13.60;;;;;;;26.08;43.06;99429.81;444856;1277;141976;-59
2022/07/04 18:12:16;;;;;;;5.60;4.20;;;;;;;25.85;43.26;99431.47;445557;1278;141918;-60
2022/07/04 18:22:21;;;;;;;5.90;4.10;;;;;;;24.92;44.75;99442.08;445575;1278;141460;-60
2022/07/04 18:32:27;;;;;;;5.90;3.70;;;;;;;24.39;45.99;99435.48;444796;1278;142141;-59
2022/07/04 18:52:56;;;;;;;4.60;4.20;;;;;;;23.57;48.25;99449.63;445411;1278;142383;-59
2022/07/04 19:03:02;;;;;;;9.80;5.20;;;;;;;23.31;48.89;99461.31;445336;1278;144062;-60
2022/07/04 19:13:09;;;;;;;5.90;4.80;;;;;;;23.03;49.82;99461.36;445388;1277;143183;-60
2022/07/04 19:23:15;;;;;;;7.00;4.40;;;;;;;22.76;50.71;99470.30;444670;1278;142546;-61
2022/07/04 19:33:21;;;;;;;9.10;4.80;;;;;;;22.51;51.58;99469.64;444930;1277;142891;-59
2022/07/04 19:43:27;;;;;;;8.00;4.90;;;;;;;22.26;52.31;99475.34;445345;1277;142353;-59
2022/07/04 19:53:33;;;;;;;9.20;5.90;;;;;;;22.00;53.48;99481.86;444803;1277;142433;-58
2022/07/04 20:03:39;;;;;;;7.20;6.50;;;;;;;21.68;54.46;99494.48;445523;1278;142919;-60
2022/07/04 20:13:45;;;;;;;9.40;5.80;;;;;;;21.33;55.32;99502.69;445280;1279;142067;-60
2022/07/04 20:23:51;;;;;;;8.80;5.90;;;;;;;21.02;56.28;99507.20;444264;1278;185943;-59
2022/07/04 20:33:57;;;;;;;21.30;7.90;;;;;;;20.70;57.09;99508.66;444964;1279;142705;-61
2022/07/04 20:44:04;;;;;;;10.70;7.40;;;;;;;20.48;58.18;99519.27;444427;1279;144692;-57
2022/07/04 20:54:10;;;;;;;13.80;6.80;;;;;;;20.28;58.82;99525.70;444939;1279;198710;-61
2022/07/04 21:04:16;;;;;;;9.00;6.00;;;;;;;20.08;59.26;99537.80;444552;1279;142846;-60
2022/07/04 21:14:22;;;;;;;17.30;8.60;;;;;;;19.84;60.02;99539.69;444559;1278;142562;-60
2022/07/04 21:24:27;;;;;;;9.30;7.20;;;;;;;19.70;60.67;99539.95;445612;1277;142377;-60
2022/07/04 21:34:33;;;;;;;16.30;9.40;;;;;;;19.53;61.37;99534.21;445557;1278;143701;-60
2022/07/04 21:44:39;;;;;;;15.90;8.10;;;;;;;19.38;61.95;99533.36;444644;1277;142345;-63
2022/07/04 21:54:46;;;;;;;14.60;8.50;;;;;;;19.22;62.12;99523.71;445361;1277;312717;-60
2022/07/04 22:04:52;;;;;;;7.90;6.70;;;;;;;19.09;62.49;99523.79;445357;1278;143740;-60
2022/07/04 22:14:57;;;;;;;8.60;6.50;;;;;;;19.34;61.80;99523.77;444929;1277;142920;-59
2022/07/04 22:25:04;;;;;;;13.90;7.60;;;;;;;19.51;61.99;99543.63;444948;1279;143219;-59
2022/07/04 22:35:10;;;;;;;9.80;6.40;;;;;;;19.49;62.80;99550.74;444862;1277;142551;-58
2022/07/04 22:45:16;;;;;;;17.80;7.40;;;;;;;19.50;63.24;99552.96;445687;1277;142944;-59
2022/07/04 22:55:22;;;;;;;13.00;7.30;;;;;;;19.58;63.17;99543.99;445361;1278;143953;-59
2022/07/04 23:05:29;;;;;;;11.90;9.30;;;;;;;19.61;63.17;99549.91;444840;1277;145225;-59
2022/07/04 23:15:35;;;;;;;10.50;6.40;;;;;;;19.75;63.03;99565.73;444993;1279;142672;-58
2022/07/04 23:25:41;;;;;;;8.50;7.80;;;;;;;19.66;64.19;99575.36;445653;1277;144374;-60
2022/07/04 23:35:46;;;;;;;10.40;7.90;;;;;;;19.92;65.05;99589.20;444833;1277;143116;-60
2022/07/04 23:45:52;;;;;;;8.90;8.20;;;;;;;19.92;65.37;99598.02;445603;1277;142866;-59
2022/07/04 23:55:58;;;;;;;9.70;8.00;;;;;;;19.73;65.88;99591.66;445699;1277;143105;-60
